Time;durP1;ratioP1;P1;durP2;ratioP2;P2;SDS_P1;SDS_P2;PMS_P1;PMS_P2;Temp;Humidity;BMP_temperature;BMP_pressure;BME280_temperature;BME280_humidity;BME280_pressure;Samples;Min_cycle;Max_cycle;Signal;HPM_P1;HPM_P2
2023/07/05 00:01:13;;;;;;;0.00;0.00;;;;;;;9.92;100.00;99628.78;5041591;28;20388;-73
2023/07/05 00:03:40;;;;;;;0.00;0.00;;;;;;;9.86;100.00;99619.00;5038541;28;20048;-77
2023/07/05 00:06:05;;;;;;;0.00;0.00;;;;;;;9.89;100.00;99625.81;5032174;28;20036;-76
2023/07/05 00:08:32;;;;;;;0.00;0.00;;;;;;;9.85;100.00;99628.28;5005246;28;20033;-76
2023/07/05 00:11:05;;;;;;;0.00;0.00;;;;;;;9.82;100.00;99626.09;5007863;28;20033;-76
2023/07/05 00:13:30;;;;;;;0.00;0.00;;;;;;;9.78;100.00;99622.28;5019068;28;20387;-75
2023/07/05 00:15:56;;;;;;;0.00;0.00;;;;;;;9.83;100.00;99635.94;4993661;28;20041;-76
2023/07/05 00:18:21;;;;;;;0.00;0.00;;;;;;;9.71;100.00;99624.50;5011531;28;20145;-75
2023/07/05 00:20:47;;;;;;;0.00;0.00;;;;;;;9.70;100.00;99631.09;4999470;28;20042;-77
2023/07/05 00:23:12;;;;;;;0.00;0.00;;;;;;;9.66;100.00;99630.00;5018724;28;20040;-75
2023/07/05 00:25:38;;;;;;;0.00;0.00;;;;;;;9.66;100.00;99638.19;5002294;28;20022;-77
2023/07/05 00:28:03;;;;;;;0.00;0.00;;;;;;;9.55;100.00;99623.75;5018121;28;20503;-74
2023/07/05 00:30:29;;;;;;;0.00;0.00;;;;;;;9.51;100.00;99628.97;5008531;28;20031;-76
2023/07/05 00:32:54;;;;;;;0.00;0.00;;;;;;;9.51;100.00;99615.31;4997778;28;20030;-76
2023/07/05 00:35:20;;;;;;;0.00;0.00;;;;;;;9.55;100.00;99624.59;5001233;28;20713;-76
2023/07/05 00:37:45;;;;;;;0.00;0.00;;;;;;;9.57;100.00;99627.84;4974929;28;20060;-78
2023/07/05 00:40:11;;;;;;;0.00;0.00;;;;;;;9.51;100.00;99617.25;4990104;28;20381;-78
2023/07/05 00:42:36;;;;;;;0.00;0.00;;;;;;;9.52;100.00;99629.78;4983771;28;20469;-77
2023/07/05 00:45:44;;;;;;;0.00;0.00;;;;;;;9.46;100.00;99644.53;4984785;28;20043;-77
2023/07/05 00:48:18;;;;;;;0.00;0.00;;;;;;;9.40;100.00;99635.53;4990971;28;20057;-77
2023/07/05 00:50:50;;;;;;;0.00;0.00;;;;;;;9.40;100.00;99638.28;5011020;28;20040;-77
2023/07/05 00:53:17;;;;;;;0.00;0.00;;;;;;;9.41;100.00;99634.47;4975543;28;20489;-76
2023/07/05 00:55:50;;;;;;;0.00;0.00;;;;;;;9.41;100.00;99639.91;4993442;28;20077;-77
2023/07/05 00:58:17;;;;;;;0.00;0.00;;;;;;;9.43;100.00;99637.72;5010830;28;20037;-75
2023/07/05 01:00:43;;;;;;;0.00;0.00;;;;;;;9.42;100.00;99647.03;5007867;28;20061;-77
2023/07/05 01:03:12;;;;;;;0.00;0.00;;;;;;;9.44;100.00;99650.28;5006070;28;20112;-76
2023/07/05 01:05:38;;;;;;;0.00;0.00;;;;;;;9.37;100.00;99656.00;4976337;28;20033;-77
2023/07/05 01:08:05;;;;;;;0.00;0.00;;;;;;;9.43;100.00;99649.47;4978671;28;20030;-76
2023/07/05 01:10:30;;;;;;;0.00;0.00;;;;;;;9.40;100.00;99643.72;5020715;28;20652;-75
2023/07/05 01:13:06;;;;;;;0.00;0.00;;;;;;;9.46;100.00;99659.00;4974087;28;20465;-75
2023/07/05 01:15:43;;;;;;;0.00;0.00;;;;;;;9.39;100.00;99658.50;5003358;28;20038;-76
2023/07/05 01:18:21;;;;;;;0.00;0.00;;;;;;;9.43;100.00;99668.56;4985831;28;20129;-76
2023/07/05 01:21:04;;;;;;;0.00;0.00;;;;;;;9.44;100.00;99655.72;5029456;28;20045;-76
2023/07/05 01:24:03;;;;;;;0.00;0.00;;;;;;;9.44;100.00;99667.47;5012041;28;20464;-75
2023/07/05 01:26:55;;;;;;;0.00;0.00;;;;;;;9.44;100.00;99672.91;5023950;28;20049;-77
2023/07/05 01:29:49;;;;;;;0.00;0.00;;;;;;;9.36;100.00;99664.47;5021760;28;20052;-76
2023/07/05 01:32:31;;;;;;;0.00;0.00;;;;;;;9.36;100.00;99669.94;5027502;28;20117;-75
2023/07/05 01:35:08;;;;;;;0.00;0.00;;;;;;;9.26;100.00;99666.13;5026248;28;20159;-74
2023/07/05 01:37:39;;;;;;;0.00;0.00;;;;;;;9.22;100.00;99669.69;5004978;28;20030;-75
2023/07/05 01:40:14;;;;;;;0.00;0.00;;;;;;;9.22;100.00;99675.97;5018802;28;20111;-74
2023/07/05 01:42:40;;;;;;;0.00;0.00;;;;;;;9.12;100.00;99664.25;5015525;28;20108;-75
2023/07/05 01:45:06;;;;;;;0.00;0.00;;;;;;;9.08;100.00;99664.81;5007853;28;20499;-75
2023/07/05 01:47:41;;;;;;;0.00;0.00;;;;;;;9.07;100.00;99667.81;5025353;28;20028;-75
2023/07/05 01:50:14;;;;;;;0.00;0.00;;;;;;;9.12;100.00;99675.97;5036191;28;20052;-76
2023/07/05 01:52:51;;;;;;;0.00;0.00;;;;;;;9.05;100.00;99667.25;5008425;28;20057;-75
2023/07/05 01:55:49;;;;;;;0.00;0.00;;;;;;;9.06;100.00;99666.97;5011833;28;20029;-75
2023/07/05 01:58:22;;;;;;;0.00;0.00;;;;;;;9.07;100.00;99673.28;5002441;28;20444;-75
2023/07/05 02:00:50;;;;;;;0.00;0.00;;;;;;;9.02;100.00;99668.66;5040121;28;20040;-75
2023/07/05 02:03:21;;;;;;;0.00;0.00;;;;;;;9.05;100.00;99669.97;5039323;28;20056;-75
2023/07/05 02:05:47;;;;;;;0.00;0.00;;;;;;;9.02;100.00;99676.00;4996976;28;20053;-74
2023/07/05 02:08:14;;;;;;;0.00;0.00;;;;;;;8.95;100.00;99672.72;5026589;28;20022;-75
2023/07/05 02:10:43;;;;;;;0.00;0.00;;;;;;;8.91;100.00;99676.00;5013743;28;20025;-75
2023/07/05 02:13:10;;;;;;;0.00;0.00;;;;;;;8.94;100.00;99668.38;5011026;28;20030;-74
2023/07/05 02:15:38;;;;;;;0.00;0.00;;;;;;;8.90;100.00;99663.44;5028173;28;20017;-75
2023/07/05 02:18:04;;;;;;;0.00;0.00;;;;;;;8.92;100.00;99676.81;5033099;28;20088;-76
2023/07/05 02:20:30;;;;;;;0.00;0.00;;;;;;;8.97;100.00;99671.38;5001485;28;20050;-76
2023/07/05 02:22:56;;;;;;;0.05;0.05;;;;;;;8.90;100.00;99660.72;4996811;28;20098;-75
2023/07/05 02:25:24;;;;;;;0.00;0.00;;;;;;;8.94;100.00;99671.09;4999804;28;20170;-75
2023/07/05 02:27:50;;;;;;;0.00;0.00;;;;;;;8.98;100.00;99681.19;4986419;28;20046;-75
2023/07/05 02:30:15;;;;;;;0.00;0.00;;;;;;;9.02;100.00;99681.44;4973278;28;20026;-75
2023/07/05 02:32:41;;;;;;;0.00;0.00;;;;;;;8.97;100.00;99670.56;4974754;28;20393;-75
2023/07/05 02:35:08;;;;;;;0.00;0.00;;;;;;;9.03;100.00;99672.19;4982451;28;20152;-77
2023/07/05 02:37:34;;;;;;;0.00;0.00;;;;;;;9.06;100.00;99677.09;4982005;28;20019;-76
2023/07/05 02:40:00;;;;;;;0.00;0.00;;;;;;;9.05;100.00;99672.72;5001330;28;20030;-76
2023/07/05 02:42:25;;;;;;;0.00;0.00;;;;;;;9.14;100.00;99682.00;5022783;28;20097;-75
2023/07/05 02:44:55;;;;;;;0.00;0.00;;;;;;;9.13;100.00;99685.81;5005211;28;20083;-75
2023/07/05 02:47:24;;;;;;;0.00;0.00;;;;;;;9.06;100.00;99677.09;5004759;28;20063;-76
2023/07/05 02:49:49;;;;;;;0.00;0.00;;;;;;;8.98;100.00;99669.44;5003328;28;20031;-78
2023/07/05 02:52:15;;;;;;;0.00;0.00;;;;;;;9.03;100.00;99678.44;5011396;28;20080;-77
2023/07/05 02:54:41;;;;;;;0.00;0.00;;;;;;;8.86;100.00;99656.94;4993777;28;20042;-76
2023/07/05 02:57:06;;;;;;;0.00;0.00;;;;;;;9.00;100.00;99679.00;5002253;28;20025;-77
2023/07/05 02:59:32;;;;;;;0.00;0.00;;;;;;;8.90;100.00;99666.19;5006350;28;20092;-76
2023/07/05 03:01:57;;;;;;;0.00;0.00;;;;;;;8.99;100.00;99677.34;5002869;28;20034;-76
2023/07/05 03:04:23;;;;;;;0.00;0.00;;;;;;;9.01;100.00;99687.97;5018585;28;20030;-76
2023/07/05 03:06:48;;;;;;;0.00;0.00;;;;;;;9.04;100.00;99690.19;4969987;28;20034;-77
2023/07/05 03:09:15;;;;;;;0.00;0.00;;;;;;;8.99;100.00;99692.91;4986167;28;20058;-76
2023/07/05 03:11:41;;;;;;;0.00;0.00;;;;;;;9.05;100.00;99700.00;5006476;28;20104;-76
2023/07/05 03:14:06;;;;;;;0.00;0.00;;;;;;;8.99;100.00;99692.91;5003924;28;20426;-76
2023/07/05 03:16:31;;;;;;;0.00;0.00;;;;;;;8.93;100.00;99694.00;4988159;28;20429;-77
2023/07/05 03:18:57;;;;;;;0.00;0.00;;;;;;;8.89;100.00;99700.00;5016818;28;20069;-77
2023/07/05 03:21:22;;;;;;;0.00;0.00;;;;;;;8.87;100.00;99693.19;5017178;28;20022;-76
2023/07/05 03:23:48;;;;;;;0.00;0.00;;;;;;;8.84;100.00;99691.81;5037613;28;20721;-75
2023/07/05 03:26:13;;;;;;;0.00;0.00;;;;;;;8.86;100.00;99700.56;5003145;28;20052;-75
2023/07/05 03:28:39;;;;;;;0.00;0.00;;;;;;;8.67;100.00;99675.75;5026368;28;20036;-75
2023/07/05 03:31:13;;;;;;;0.00;0.00;;;;;;;8.87;100.00;99698.63;5019705;28;20495;-75
2023/07/05 03:33:39;;;;;;;0.00;0.00;;;;;;;8.87;100.00;99713.06;5014356;28;20530;-76
2023/07/05 03:36:17;;;;;;;0.00;0.00;;;;;;;8.89;100.00;99697.28;5022780;28;20033;-75
2023/07/05 03:38:43;;;;;;;0.00;0.00;;;;;;;8.85;100.00;99698.91;5042502;28;20018;-75
2023/07/05 03:41:17;;;;;;;0.00;0.00;;;;;;;8.90;100.00;99706.28;5024412;28;20033;-76
2023/07/05 03:43:43;;;;;;;0.00;0.00;;;;;;;8.77;100.00;99696.72;5007817;28;20072;-76
2023/07/05 03:46:14;;;;;;;0.00;0.00;;;;;;;8.79;100.00;99702.72;5034902;28;20125;-76
2023/07/05 03:48:41;;;;;;;0.00;0.00;;;;;;;8.74;100.00;99702.72;5028083;28;20021;-76
2023/07/05 03:51:10;;;;;;;0.00;0.00;;;;;;;8.83;100.00;99706.53;5009340;28;20147;-75
2023/07/05 03:53:36;;;;;;;0.00;0.00;;;;;;;8.85;100.00;99709.81;5023359;28;20064;-77
2023/07/05 03:56:04;;;;;;;0.00;0.00;;;;;;;8.88;100.00;99714.72;5024898;28;20373;-77
2023/07/05 03:58:32;;;;;;;0.00;0.00;;;;;;;8.97;100.00;99719.63;5009822;28;20057;-77
2023/07/05 04:01:14;;;;;;;0.00;0.00;;;;;;;9.01;100.00;99717.97;5007938;28;20026;-78
2023/07/05 04:03:44;;;;;;;0.00;0.00;;;;;;;8.99;100.00;99715.53;5026961;28;20428;-78
2023/07/05 04:06:13;;;;;;;0.00;0.00;;;;;;;8.96;100.00;99720.72;4996996;28;20562;-78
2023/07/05 04:08:39;;;;;;;0.00;0.00;;;;;;;8.88;100.00;99720.16;5010527;28;20029;-78
2023/07/05 04:11:05;;;;;;;0.00;0.00;;;;;;;8.91;100.00;99724.28;4990218;28;20057;-78
2023/07/05 04:13:31;;;;;;;0.00;0.00;;;;;;;8.93;100.00;99721.28;5018760;28;20065;-78
2023/07/05 04:15:59;;;;;;;0.00;0.00;;;;;;;9.04;100.00;99733.81;5038178;28;20041;-77
2023/07/05 04:18:26;;;;;;;0.00;0.00;;;;;;;9.14;100.00;99736.56;5041666;28;20053;-77
2023/07/05 04:20:51;;;;;;;0.00;0.00;;;;;;;9.33;100.00;99746.88;5030112;28;20107;-78
2023/07/05 04:23:16;;;;;;;0.00;0.00;;;;;;;9.48;100.00;99738.69;5042764;28;20467;-77
2023/07/05 04:25:42;;;;;;;0.00;0.00;;;;;;;9.67;100.00;99751.78;5026756;28;20063;-78
2023/07/05 04:28:07;;;;;;;0.00;0.00;;;;;;;9.75;100.00;99753.91;5006378;28;20029;-76
2023/07/05 04:30:32;;;;;;;0.00;0.00;;;;;;;9.83;100.00;99756.09;5027172;28;20052;-76
2023/07/05 04:32:58;;;;;;;0.00;0.00;;;;;;;9.91;100.00;99752.78;5021000;28;20084;-76
2023/07/05 04:35:23;;;;;;;0.00;0.00;;;;;;;9.93;100.00;99755.25;5026800;28;20030;-76
2023/07/05 04:37:49;;;;;;;0.00;0.00;;;;;;;10.00;100.00;99757.66;5020185;28;20029;-76
2023/07/05 04:40:14;;;;;;;0.00;0.00;;;;;;;10.12;100.00;99759.00;5037024;28;20041;-76
2023/07/05 04:42:40;;;;;;;0.00;0.00;;;;;;;10.19;100.00;99758.72;5042701;28;20029;-77
2023/07/05 04:45:06;;;;;;;0.00;0.00;;;;;;;10.25;100.00;99763.03;4998497;28;20030;-77
2023/07/05 04:47:31;;;;;;;0.00;0.00;;;;;;;10.24;100.00;99758.66;5031244;28;20029;-77
2023/07/05 04:49:56;;;;;;;0.00;0.00;;;;;;;10.35;100.00;99761.38;5010459;28;20472;-77
2023/07/05 04:52:22;;;;;;;0.00;0.00;;;;;;;10.43;100.00;99758.88;5006902;28;20494;-78
2023/07/05 04:54:47;;;;;;;0.00;0.00;;;;;;;10.58;100.00;99771.66;5027547;28;20034;-77
2023/07/05 04:57:13;;;;;;;0.00;0.00;;;;;;;10.63;100.00;99766.16;5018677;28;20018;-77
2023/07/05 04:59:43;;;;;;;0.00;0.00;;;;;;;10.71;100.00;99778.41;5026169;28;20029;-77
2023/07/05 05:02:09;;;;;;;0.00;0.00;;;;;;;10.76;100.00;99774.81;5018882;28;20041;-77
2023/07/05 05:04:35;;;;;;;0.00;0.00;;;;;;;10.87;100.00;99776.41;5035774;28;20487;-76
2023/07/05 05:07:00;;;;;;;0.00;0.00;;;;;;;10.91;100.00;99782.94;5015096;28;20041;-78
2023/07/05 05:09:26;;;;;;;0.00;0.00;;;;;;;10.90;100.00;99783.22;5020892;28;20022;-76
2023/07/05 05:11:51;;;;;;;0.00;0.00;;;;;;;10.93;100.00;99779.91;5027003;28;20430;-76
2023/07/05 05:14:16;;;;;;;0.00;0.00;;;;;;;10.86;100.00;99782.16;5000507;28;20075;-76
2023/07/05 05:16:42;;;;;;;0.00;0.00;;;;;;;10.83;100.00;99783.53;5038136;28;20022;-76
2023/07/05 05:19:07;;;;;;;0.00;0.00;;;;;;;10.83;100.00;99794.47;5024556;28;20399;-76
2023/07/05 05:21:33;;;;;;;0.00;0.00;;;;;;;10.79;100.00;99786.03;5037822;28;20018;-77
2023/07/05 05:24:01;;;;;;;0.00;0.00;;;;;;;10.91;100.00;99791.16;5024118;28;20041;-76
2023/07/05 05:26:28;;;;;;;0.00;0.00;;;;;;;11.06;100.00;99792.16;5008706;28;20037;-73
2023/07/05 05:28:53;;;;;;;0.08;0.08;;;;;;;11.10;100.00;99766.66;5021766;28;20387;-76
2023/07/05 05:31:19;;;;;;;0.00;0.00;;;;;;;11.45;100.00;99794.03;5023385;28;20040;-76
2023/07/05 05:33:46;;;;;;;0.00;0.00;;;;;;;11.62;100.00;99782.63;5039182;28;20021;-73
2023/07/05 05:36:11;;;;;;;0.00;0.00;;;;;;;11.80;100.00;99789.31;5025284;28;20037;-74
2023/07/05 05:38:37;;;;;;;0.00;0.00;;;;;;;11.96;100.00;99782.59;4998870;28;20087;-74
2023/07/05 05:41:08;;;;;;;0.00;0.00;;;;;;;12.12;100.00;99785.16;5020728;28;20035;-73
2023/07/05 05:43:34;;;;;;;0.00;0.00;;;;;;;12.27;100.00;99789.66;5000188;28;20110;-72
2023/07/05 05:45:59;;;;;;;0.00;0.00;;;;;;;12.45;100.00;99799.03;5027252;28;20034;-73
2023/07/05 05:48:26;;;;;;;0.00;0.00;;;;;;;12.56;100.00;99806.00;5009342;28;20407;-73
2023/07/05 05:50:51;;;;;;;0.00;0.00;;;;;;;12.63;100.00;99811.97;5001040;28;20038;-72
2023/07/05 05:53:16;;;;;;;0.00;0.00;;;;;;;12.72;100.00;99809.38;5033663;28;20033;-74
2023/07/05 05:55:42;;;;;;;0.00;0.00;;;;;;;12.86;100.00;99814.91;5010014;28;20029;-74
2023/07/05 05:58:08;;;;;;;0.00;0.00;;;;;;;12.86;100.00;99806.69;5030373;28;20472;-73
2023/07/05 06:00:34;;;;;;;0.00;0.00;;;;;;;12.96;100.00;99817.53;5008527;28;20048;-73
2023/07/05 06:02:59;;;;;;;0.00;0.00;;;;;;;13.06;100.00;99819.31;5015072;28;20029;-73
2023/07/05 06:05:25;;;;;;;0.00;0.00;;;;;;;13.13;100.00;99824.41;5013342;28;20122;-74
2023/07/05 06:07:50;;;;;;;0.00;0.00;;;;;;;13.10;100.00;99828.59;5001751;28;20041;-73
2023/07/05 06:10:16;;;;;;;0.00;0.00;;;;;;;13.05;100.00;99828.66;5013199;28;20434;-73
2023/07/05 06:12:41;;;;;;;0.00;0.00;;;;;;;12.90;100.00;99835.19;4992169;28;20022;-74
2023/07/05 06:15:12;;;;;;;0.00;0.00;;;;;;;12.85;100.00;99835.22;4997867;28;20124;-73
2023/07/05 06:17:37;;;;;;;0.00;0.00;;;;;;;12.90;100.00;99840.66;5038959;28;20052;-73
2023/07/05 06:20:06;;;;;;;0.00;0.00;;;;;;;12.99;100.00;99843.56;5010957;28;20029;-73
2023/07/05 06:22:36;;;;;;;0.00;0.00;;;;;;;12.95;100.00;99845.25;5005539;28;20045;-73
2023/07/05 06:25:02;;;;;;;0.00;0.00;;;;;;;13.01;100.00;99858.63;4989406;28;20022;-72
2023/07/05 06:27:27;;;;;;;0.00;0.00;;;;;;;12.99;100.00;99858.09;4988241;28;20396;-71
2023/07/05 06:29:54;;;;;;;0.00;0.00;;;;;;;12.96;100.00;99866.91;4983751;28;20041;-73
2023/07/05 06:32:20;;;;;;;0.00;0.00;;;;;;;13.02;100.00;99867.66;5003351;28;20025;-74
2023/07/05 06:34:45;;;;;;;0.00;0.00;;;;;;;13.17;100.00;99869.38;4997123;28;20026;-73
2023/07/05 06:37:11;;;;;;;0.00;0.00;;;;;;;13.28;100.00;99870.84;5007565;28;20089;-72
2023/07/05 06:39:37;;;;;;;0.00;0.00;;;;;;;13.36;100.00;99872.13;5002628;28;20125;-73
2023/07/05 06:42:04;;;;;;;0.00;0.00;;;;;;;13.52;100.00;99875.47;4984794;28;20411;-74
2023/07/05 06:44:29;;;;;;;0.00;0.00;;;;;;;13.53;99.17;99871.59;5014944;28;20044;-76
2023/07/05 06:46:54;;;;;;;0.00;0.00;;;;;;;13.52;98.19;99880.97;4993439;28;20037;-76
2023/07/05 06:49:20;;;;;;;0.00;0.00;;;;;;;13.48;98.32;99879.91;5020528;28;20028;-75
2023/07/05 06:51:49;;;;;;;0.00;0.00;;;;;;;13.56;97.97;99871.81;4985698;28;20124;-75
2023/07/05 06:54:14;;;;;;;0.00;0.00;;;;;;;13.65;97.01;99885.69;4987382;28;20407;-76
2023/07/05 06:56:39;;;;;;;0.00;0.00;;;;;;;13.64;97.05;99888.72;5024165;28;20030;-75
2023/07/05 06:59:05;;;;;;;0.00;0.00;;;;;;;13.52;97.14;99891.94;4998180;28;20473;-77
2023/07/05 07:01:30;;;;;;;0.00;0.00;;;;;;;13.54;97.90;99897.97;4996403;28;20400;-77
2023/07/05 07:03:56;;;;;;;0.00;0.00;;;;;;;13.64;97.76;99895.06;4980526;28;20022;-76
2023/07/05 07:06:21;;;;;;;0.00;0.00;;;;;;;13.86;98.05;99902.66;5008833;28;20041;-76
2023/07/05 07:08:48;;;;;;;0.00;0.00;;;;;;;13.92;97.14;99895.16;5006068;28;20038;-76
2023/07/05 07:11:13;;;;;;;0.00;0.00;;;;;;;14.21;95.78;99899.59;4995049;28;20054;-76
2023/07/05 07:13:39;;;;;;;0.00;0.00;;;;;;;14.47;94.39;99903.50;5019962;28;20100;-77
2023/07/05 07:16:11;;;;;;;0.00;0.00;;;;;;;14.69;91.98;99913.00;4980852;28;20098;-75
2023/07/05 07:18:37;;;;;;;0.00;0.00;;;;;;;14.98;90.87;99898.91;5006778;28;20046;-75
2023/07/05 07:21:05;;;;;;;0.00;0.00;;;;;;;15.21;89.68;99900.91;4981711;28;20485;-76
2023/07/05 07:23:31;;;;;;;0.00;0.00;;;;;;;15.36;88.62;99914.31;5040177;28;20060;-77
2023/07/05 07:26:19;;;;;;;0.00;0.00;;;;;;;15.41;87.74;99911.44;5008757;28;20441;-76
2023/07/05 07:28:46;;;;;;;0.00;0.00;;;;;;;15.47;86.75;99914.91;5004531;28;20029;-77
2023/07/05 07:31:18;;;;;;;0.00;0.00;;;;;;;15.59;87.46;99915.16;4997809;28;20022;-74
2023/07/05 07:33:50;;;;;;;0.00;0.00;;;;;;;15.78;87.11;99915.00;5001718;28;20109;-76
2023/07/05 07:36:22;;;;;;;0.00;0.00;;;;;;;15.78;85.60;99909.50;4998121;28;20440;-74
2023/07/05 07:38:50;;;;;;;0.00;0.00;;;;;;;15.86;84.11;99917.00;5002385;28;20023;-74
2023/07/05 07:41:21;;;;;;;0.00;0.00;;;;;;;15.91;84.03;99920.78;5005825;28;20480;-75
2023/07/05 07:43:50;;;;;;;0.00;0.00;;;;;;;15.87;82.25;99929.69;5007129;28;20026;-74
2023/07/05 07:46:23;;;;;;;0.00;0.00;;;;;;;15.76;81.08;99935.72;4982392;28;20057;-75
2023/07/05 07:48:50;;;;;;;0.00;0.00;;;;;;;15.90;80.69;99932.94;5006877;28;20054;-75
2023/07/05 07:51:17;;;;;;;0.00;0.00;;;;;;;16.03;79.60;99937.56;5018582;28;20386;-76
2023/07/05 07:53:43;;;;;;;0.00;0.00;;;;;;;15.98;77.61;99945.97;5000727;28;20065;-73
2023/07/05 07:56:11;;;;;;;0.00;0.00;;;;;;;15.87;77.72;99940.72;5006417;28;20053;-75
2023/07/05 07:58:37;;;;;;;0.00;0.00;;;;;;;16.05;77.88;99941.63;4987074;28;20026;-73
2023/07/05 08:01:17;;;;;;;0.00;0.00;;;;;;;16.51;76.38;99942.34;4977282;28;20589;-75
2023/07/05 08:03:43;;;;;;;0.00;0.00;;;;;;;17.26;73.00;99944.44;5000178;28;20025;-74
2023/07/05 08:06:10;;;;;;;0.00;0.00;;;;;;;17.70;69.64;99948.03;4998592;28;20026;-72
2023/07/05 08:08:40;;;;;;;0.00;0.00;;;;;;;18.04;68.58;99967.72;4988010;28;20494;-73
2023/07/05 08:11:08;;;;;;;0.00;0.00;;;;;;;17.96;66.30;99972.94;4999178;28;20033;-74
2023/07/05 08:13:34;;;;;;;0.00;0.00;;;;;;;17.67;65.00;99969.97;5004879;28;20065;-74
2023/07/05 08:16:00;;;;;;;0.00;0.00;;;;;;;17.69;66.78;99978.78;5001434;28;20080;-74
2023/07/05 08:18:26;;;;;;;0.00;0.00;;;;;;;17.69;66.29;99982.34;4983785;28;20061;-74
2023/07/05 08:20:52;;;;;;;0.00;0.00;;;;;;;17.47;66.69;99988.81;5005286;28;20037;-74
2023/07/05 08:23:17;;;;;;;0.00;0.00;;;;;;;17.03;66.86;99982.41;5028523;28;20018;-73
2023/07/05 08:25:43;;;;;;;0.00;0.00;;;;;;;16.79;67.77;99991.84;5007996;28;20495;-75
2023/07/05 08:28:13;;;;;;;0.00;0.00;;;;;;;16.72;68.56;99986.00;5014687;28;20489;-74
2023/07/05 08:30:39;;;;;;;0.00;0.00;;;;;;;16.58;68.57;99992.41;5002850;28;20049;-74
2023/07/05 08:33:06;;;;;;;0.00;0.00;;;;;;;16.60;71.22;99986.56;5007739;28;20056;-74
2023/07/05 08:35:32;;;;;;;0.00;0.00;;;;;;;16.77;72.18;99999.63;5002787;28;20089;-74
2023/07/05 08:37:58;;;;;;;0.00;0.00;;;;;;;17.00;72.29;99996.84;5021863;28;21135;-73
2023/07/05 08:40:35;;;;;;;0.00;0.00;;;;;;;17.03;71.84;100008.06;5000020;28;20115;-74
2023/07/05 08:43:14;;;;;;;0.00;0.00;;;;;;;17.26;71.03;100010.75;4985704;28;20728;-74
2023/07/05 08:45:45;;;;;;;0.00;0.00;;;;;;;17.73;70.62;100008.19;4994412;28;20018;-75
2023/07/05 08:48:15;;;;;;;0.00;0.00;;;;;;;18.25;64.40;100012.94;4994340;28;20973;-74
2023/07/05 08:50:52;;;;;;;0.00;0.00;;;;;;;18.62;61.97;100013.34;5018801;28;20263;-73
2023/07/05 08:53:20;;;;;;;0.00;0.00;;;;;;;18.07;63.76;100022.41;4999351;28;20022;-74
2023/07/05 08:56:04;;;;;;;0.00;0.00;;;;;;;17.58;63.41;100006.72;5000327;28;21362;-73
2023/07/05 08:58:56;;;;;;;0.00;0.00;;;;;;;17.92;64.83;100016.22;5006392;28;20051;-73
2023/07/05 09:01:36;;;;;;;0.00;0.00;;;;;;;18.61;61.61;100008.94;4998951;28;20041;-75
2023/07/05 09:04:02;;;;;;;0.00;0.00;;;;;;;18.94;59.90;100022.22;5003412;28;20495;-74
2023/07/05 09:06:46;;;;;;;0.00;0.00;;;;;;;18.37;56.91;100023.34;5026447;28;20038;-73
2023/07/05 09:09:40;;;;;;;0.00;0.00;;;;;;;18.28;56.00;100017.00;5007244;28;20051;-76
2023/07/05 09:12:24;;;;;;;0.00;0.00;;;;;;;18.54;56.93;100036.31;5005372;28;20455;-75
2023/07/05 09:14:55;;;;;;;0.00;0.00;;;;;;;18.89;56.73;100033.47;5009711;28;20026;-74
2023/07/05 09:17:45;;;;;;;0.00;0.00;;;;;;;19.58;55.89;100027.91;5022036;28;20029;-75
2023/07/05 09:20:22;;;;;;;0.00;0.00;;;;;;;19.88;54.44;100031.47;5006929;28;20051;-73
2023/07/05 09:22:49;;;;;;;0.00;0.00;;;;;;;19.41;54.24;100045.47;5014663;28;20443;-76
2023/07/05 09:25:19;;;;;;;0.00;0.00;;;;;;;18.71;55.47;100034.66;5029157;28;20060;-74
2023/07/05 09:27:49;;;;;;;0.00;0.00;;;;;;;18.14;56.39;100034.59;5021031;28;20059;-73
2023/07/05 09:30:26;;;;;;;0.00;0.00;;;;;;;18.12;58.42;100047.13;5029251;28;20037;-75
2023/07/05 09:33:15;;;;;;;0.00;0.00;;;;;;;18.03;56.61;100046.31;5021265;28;20029;-74
2023/07/05 09:35:44;;;;;;;0.00;0.00;;;;;;;18.30;57.55;100045.16;5021495;28;20025;-74
2023/07/05 09:38:20;;;;;;;0.00;0.00;;;;;;;18.95;57.13;100048.78;4987120;28;20026;-73
2023/07/05 09:40:57;;;;;;;0.00;0.00;;;;;;;19.14;54.99;100064.19;5026462;28;20040;-75
2023/07/05 09:43:31;;;;;;;0.00;0.00;;;;;;;18.20;56.73;100053.81;5022592;28;20025;-74
2023/07/05 09:46:00;;;;;;;0.00;0.00;;;;;;;17.51;59.09;100058.91;4995631;28;20372;-74
2023/07/05 09:48:29;;;;;;;0.00;0.00;;;;;;;17.39;61.15;100064.22;5024346;28;20043;-75
2023/07/05 09:50:54;;;;;;;0.00;0.00;;;;;;;17.49;61.43;100044.59;5044646;28;20037;-73
2023/07/05 09:53:29;;;;;;;0.00;0.00;;;;;;;17.66;55.28;100062.38;5015106;28;20036;-74
2023/07/05 09:56:05;;;;;;;0.00;0.00;;;;;;;17.71;56.84;100078.78;5039240;28;20495;-73
2023/07/05 09:58:34;;;;;;;0.00;0.00;;;;;;;17.75;54.24;100071.47;5014054;28;20041;-74
2023/07/05 10:01:04;;;;;;;0.00;0.00;;;;;;;17.73;52.27;100079.28;5034659;28;20029;-73
2023/07/05 10:03:44;;;;;;;0.00;0.00;;;;;;;17.86;52.98;100056.22;5026697;28;20097;-73
2023/07/05 10:06:12;;;;;;;0.00;0.00;;;;;;;18.24;51.34;100077.72;5016080;28;20104;-73
2023/07/05 10:08:48;;;;;;;0.00;0.00;;;;;;;19.08;51.15;100082.94;5038571;28;20535;-74
2023/07/05 10:11:22;;;;;;;0.00;0.00;;;;;;;20.52;47.50;100084.97;5026680;28;20100;-74
2023/07/05 10:14:05;;;;;;;0.00;0.00;;;;;;;21.95;44.91;100080.59;5022771;28;20018;-74
2023/07/05 10:16:57;;;;;;;0.00;0.00;;;;;;;21.19;43.95;100087.72;5050168;28;20273;-74
2023/07/05 10:19:31;;;;;;;0.00;0.00;;;;;;;23.09;41.14;100092.53;5021344;28;20145;-74
2023/07/05 10:22:46;;;;;;;0.00;0.00;;;;;;;26.09;36.47;100069.28;4996704;28;20072;-74
2023/07/05 10:25:18;;;;;;;0.00;0.00;;;;;;;25.83;35.75;100091.69;4998384;28;20044;-74
2023/07/05 10:27:48;;;;;;;0.00;0.00;;;;;;;23.98;38.88;100098.69;5004071;28;20033;-74
2023/07/05 10:30:19;;;;;;;0.00;0.00;;;;;;;26.51;35.22;100109.41;4996465;28;20055;-73
2023/07/05 10:32:50;;;;;;;0.00;0.00;;;;;;;27.07;32.63;100104.00;4998339;28;20030;-74
2023/07/05 10:35:23;;;;;;;0.00;0.00;;;;;;;28.32;30.74;100095.66;5005474;28;20469;-74
2023/07/05 10:37:49;;;;;;;0.00;0.00;;;;;;;28.54;30.55;100107.78;5002723;28;20030;-75
2023/07/05 10:40:15;;;;;;;0.00;0.00;;;;;;;25.99;33.06;100100.69;4991421;28;20566;-73
2023/07/05 10:42:48;;;;;;;0.00;0.00;;;;;;;27.57;30.94;100095.22;4997617;28;20069;-74
2023/07/05 10:45:16;;;;;;;0.00;0.00;;;;;;;29.65;28.32;100114.78;4999415;28;20040;-74
2023/07/05 10:47:44;;;;;;;0.00;0.00;;;;;;;31.46;25.98;100101.44;4992632;28;20028;-74
2023/07/05 10:50:13;;;;;;;0.00;0.00;;;;;;;30.70;26.25;100112.47;4997583;28;20101;-73
2023/07/05 10:52:50;;;;;;;0.00;0.00;;;;;;;29.99;27.19;100108.72;4989390;28;20469;-73
2023/07/05 10:55:21;;;;;;;0.00;0.00;;;;;;;30.48;26.71;100097.69;4998056;28;20026;-73
2023/07/05 10:58:02;;;;;;;0.00;0.00;;;;;;;31.91;24.41;100097.81;4988533;28;20022;-74
2023/07/05 11:01:04;;;;;;;0.00;0.00;;;;;;;32.72;23.53;100099.25;5000185;28;20072;-73
2023/07/05 11:03:55;;;;;;;0.00;0.00;;;;;;;33.90;22.63;100102.19;4942966;28;20043;-73
2023/07/05 11:06:24;;;;;;;0.00;0.00;;;;;;;35.20;21.11;100110.75;4974416;28;20412;-75
2023/07/05 11:08:50;;;;;;;0.00;0.00;;;;;;;34.69;21.19;100093.28;4998013;28;20030;-74
2023/07/05 11:11:19;;;;;;;0.00;0.00;;;;;;;32.29;22.61;100111.16;5004320;28;20031;-74
2023/07/05 11:13:47;;;;;;;0.00;0.00;;;;;;;31.01;25.02;100104.25;4999397;28;20030;-73
2023/07/05 11:16:27;;;;;;;0.00;0.00;;;;;;;30.71;24.91;100119.75;4998958;28;20189;-73
2023/07/05 11:19:00;;;;;;;0.00;0.00;;;;;;;30.24;26.24;100105.84;5008508;28;20884;-74
2023/07/05 11:21:44;;;;;;;0.00;0.00;;;;;;;32.73;23.24;100117.84;5024587;28;20104;-75
2023/07/05 11:24:33;;;;;;;0.00;0.00;;;;;;;34.04;21.77;100111.63;5016913;28;20100;-76
2023/07/05 11:27:00;;;;;;;0.00;0.00;;;;;;;36.19;19.89;100122.00;5029321;28;20025;-74
2023/07/05 11:29:32;;;;;;;0.00;0.00;;;;;;;36.26;19.90;100124.63;5010229;28;20072;-74
2023/07/05 11:32:01;;;;;;;0.00;0.00;;;;;;;35.80;19.00;100123.88;5043063;28;20025;-73
2023/07/05 11:34:27;;;;;;;0.00;0.00;;;;;;;34.35;20.39;100122.81;5020381;28;20059;-74
2023/07/05 11:37:13;;;;;;;0.00;0.00;;;;;;;34.56;20.32;100107.34;5042393;28;20380;-75
2023/07/05 11:39:47;;;;;;;0.00;0.00;;;;;;;30.77;23.63;100098.31;5010842;28;20033;-73
2023/07/05 11:42:12;;;;;;;0.00;0.00;;;;;;;30.40;25.45;100105.34;5032088;28;20026;-74